sensor_id;sensor_type;location;lat;lon;timestamp;temperature;humidity
52044;DHT22;38053;53.100;6.078;2023-07-29T00:02:07;18.90;99.90
52044;DHT22;38053;53.100;6.078;2023-07-29T00:04:32;18.90;99.90
52044;DHT22;38053;53.100;6.078;2023-07-29T00:06:58;18.90;99.90
52044;DHT22;38053;53.100;6.078;2023-07-29T00:09:24;18.80;99.90
52044;DHT22;38053;53.100;6.078;2023-07-29T00:11:50;18.80;99.90
52044;DHT22;38053;53.100;6.078;2023-07-29T00:14:15;18.80;99.90
52044;DHT22;38053;53.100;6.078;2023-07-29T00:16:41;18.70;99.90
52044;DHT22;38053;53.100;6.078;2023-07-29T00:19:08;18.70;99.90
52044;DHT22;38053;53.100;6.078;2023-07-29T00:21:33;18.70;99.90
52044;DHT22;38053;53.100;6.078;2023-07-29T00:23:59;18.70;99.90
52044;DHT22;38053;53.100;6.078;2023-07-29T00:26:27;18.60;99.90
52044;DHT22;38053;53.100;6.078;2023-07-29T00:28:55;18.60;99.90
52044;DHT22;38053;53.100;6.078;2023-07-29T00:31:21;18.60;99.90
52044;DHT22;38053;53.100;6.078;2023-07-29T00:33:47;18.60;99.90
52044;DHT22;38053;53.100;6.078;2023-07-29T00:36:12;18.60;99.90
52044;DHT22;38053;53.100;6.078;2023-07-29T00:38:38;18.50;99.90
52044;DHT22;38053;53.100;6.078;2023-07-29T00:41:05;18.50;99.90
52044;DHT22;38053;53.100;6.078;2023-07-29T00:43:30;18.50;99.90
52044;DHT22;38053;53.100;6.078;2023-07-29T00:45:56;18.50;99.90
52044;DHT22;38053;53.100;6.078;2023-07-29T00:48:23;18.50;99.90
52044;DHT22;38053;53.100;6.078;2023-07-29T00:50:49;18.40;99.90
52044;DHT22;38053;53.100;6.078;2023-07-29T00:53:15;18.40;99.90
52044;DHT22;38053;53.100;6.078;2023-07-29T00:55:41;18.40;99.90
52044;DHT22;38053;53.100;6.078;2023-07-29T00:58:07;18.40;99.90
52044;DHT22;38053;53.100;6.078;2023-07-29T01:00:33;18.40;99.90
52044;DHT22;38053;53.100;6.078;2023-07-29T01:02:59;18.40;99.90
52044;DHT22;38053;53.100;6.078;2023-07-29T01:05:28;18.30;99.90
52044;DHT22;38053;53.100;6.078;2023-07-29T01:08:06;18.30;99.90
52044;DHT22;38053;53.100;6.078;2023-07-29T01:13:35;18.20;99.90
52044;DHT22;38053;53.100;6.078;2023-07-29T01:16:13;18.20;99.90
52044;DHT22;38053;53.100;6.078;2023-07-29T01:18:41;18.20;99.90
52044;DHT22;38053;53.100;6.078;2023-07-29T01:21:09;18.00;99.90
52044;DHT22;38053;53.100;6.078;2023-07-29T01:23:36;18.00;99.90
52044;DHT22;38053;53.100;6.078;2023-07-29T01:26:03;18.00;99.90
52044;DHT22;38053;53.100;6.078;2023-07-29T01:28:29;18.00;99.90
52044;DHT22;38053;53.100;6.078;2023-07-29T01:31:07;17.90;99.90
52044;DHT22;38053;53.100;6.078;2023-07-29T01:33:42;17.90;99.90
52044;DHT22;38053;53.100;6.078;2023-07-29T01:36:20;17.90;99.90
52044;DHT22;38053;53.100;6.078;2023-07-29T01:38:48;17.90;99.90
52044;DHT22;38053;53.100;6.078;2023-07-29T01:41:14;17.80;99.90
52044;DHT22;38053;53.100;6.078;2023-07-29T01:43:42;17.90;99.90
52044;DHT22;38053;53.100;6.078;2023-07-29T01:46:12;17.80;99.90
52044;DHT22;38053;53.100;6.078;2023-07-29T01:48:38;17.80;99.90
52044;DHT22;38053;53.100;6.078;2023-07-29T01:51:05;17.80;99.90
52044;DHT22;38053;53.100;6.078;2023-07-29T01:53:32;17.80;99.90
52044;DHT22;38053;53.100;6.078;2023-07-29T01:55:58;17.70;99.90
52044;DHT22;38053;53.100;6.078;2023-07-29T01:58:24;17.70;99.90
52044;DHT22;38053;53.100;6.078;2023-07-29T02:00:50;17.70;99.90
52044;DHT22;38053;53.100;6.078;2023-07-29T02:03:16;17.60;99.90
52044;DHT22;38053;53.100;6.078;2023-07-29T02:05:41;17.60;99.90
52044;DHT22;38053;53.100;6.078;2023-07-29T02:08:09;17.60;99.90
52044;DHT22;38053;53.100;6.078;2023-07-29T02:10:35;17.60;99.90
52044;DHT22;38053;53.100;6.078;2023-07-29T02:13:01;17.50;99.90
52044;DHT22;38053;53.100;6.078;2023-07-29T02:15:27;17.50;99.90
52044;DHT22;38053;53.100;6.078;2023-07-29T02:17:53;17.50;99.90
52044;DHT22;38053;53.100;6.078;2023-07-29T02:20:19;17.40;99.90
52044;DHT22;38053;53.100;6.078;2023-07-29T02:22:45;17.40;99.90
52044;DHT22;38053;53.100;6.078;2023-07-29T02:25:10;17.40;99.90
52044;DHT22;38053;53.100;6.078;2023-07-29T02:27:36;17.40;99.90
52044;DHT22;38053;53.100;6.078;2023-07-29T02:30:02;17.40;99.90
52044;DHT22;38053;53.100;6.078;2023-07-29T02:32:28;17.40;99.90
52044;DHT22;38053;53.100;6.078;2023-07-29T02:34:54;17.30;99.90
52044;DHT22;38053;53.100;6.078;2023-07-29T02:37:20;17.30;99.90
52044;DHT22;38053;53.100;6.078;2023-07-29T02:39:46;17.30;99.90
52044;DHT22;38053;53.100;6.078;2023-07-29T02:42:12;17.30;99.90
52044;DHT22;38053;53.100;6.078;2023-07-29T02:44:38;17.30;99.90
52044;DHT22;38053;53.100;6.078;2023-07-29T02:47:04;17.30;99.90
52044;DHT22;38053;53.100;6.078;2023-07-29T02:49:30;17.20;99.90
52044;DHT22;38053;53.100;6.078;2023-07-29T02:51:55;17.20;99.90
52044;DHT22;38053;53.100;6.078;2023-07-29T02:54:21;17.20;99.90
52044;DHT22;38053;53.100;6.078;2023-07-29T02:56:47;17.20;99.90
52044;DHT22;38053;53.100;6.078;2023-07-29T02:59:13;17.10;99.90
52044;DHT22;38053;53.100;6.078;2023-07-29T03:01:39;17.10;99.90
52044;DHT22;38053;53.100;6.078;2023-07-29T03:04:05;17.10;99.90
52044;DHT22;38053;53.100;6.078;2023-07-29T03:06:31;17.00;99.90
52044;DHT22;38053;53.100;6.078;2023-07-29T03:08:57;17.00;99.90
52044;DHT22;38053;53.100;6.078;2023-07-29T03:11:22;17.00;99.90
52044;DHT22;38053;53.100;6.078;2023-07-29T03:13:48;17.00;99.90
52044;DHT22;38053;53.100;6.078;2023-07-29T03:16:15;16.90;99.90
52044;DHT22;38053;53.100;6.078;2023-07-29T03:18:42;16.90;99.90
52044;DHT22;38053;53.100;6.078;2023-07-29T03:21:09;16.90;99.90
52044;DHT22;38053;53.100;6.078;2023-07-29T03:23:35;16.90;99.90
52044;DHT22;38053;53.100;6.078;2023-07-29T03:26:02;16.80;99.90
52044;DHT22;38053;53.100;6.078;2023-07-29T03:28:36;16.80;99.90
52044;DHT22;38053;53.100;6.078;2023-07-29T03:31:02;16.80;99.90
52044;DHT22;38053;53.100;6.078;2023-07-29T03:33:28;16.80;99.90
52044;DHT22;38053;53.100;6.078;2023-07-29T03:35:54;16.70;99.90
52044;DHT22;38053;53.100;6.078;2023-07-29T03:38:20;16.70;99.90
52044;DHT22;38053;53.100;6.078;2023-07-29T03:40:46;16.70;99.90
52044;DHT22;38053;53.100;6.078;2023-07-29T03:43:12;16.70;99.90
52044;DHT22;38053;53.100;6.078;2023-07-29T03:45:38;16.70;99.90
52044;DHT22;38053;53.100;6.078;2023-07-29T03:48:05;16.70;99.90
52044;DHT22;38053;53.100;6.078;2023-07-29T03:50:32;16.70;99.90
52044;DHT22;38053;53.100;6.078;2023-07-29T03:52:58;16.70;99.90
52044;DHT22;38053;53.100;6.078;2023-07-29T03:55:24;16.70;99.90
52044;DHT22;38053;53.100;6.078;2023-07-29T03:57:49;16.70;99.90
52044;DHT22;38053;53.100;6.078;2023-07-29T04:00:15;16.70;99.90
52044;DHT22;38053;53.100;6.078;2023-07-29T04:02:42;16.70;99.90
52044;DHT22;38053;53.100;6.078;2023-07-29T04:05:08;16.70;99.90
52044;DHT22;38053;53.100;6.078;2023-07-29T04:07:34;16.70;99.90
52044;DHT22;38053;53.100;6.078;2023-07-29T04:10:01;16.70;99.90
52044;DHT22;38053;53.100;6.078;2023-07-29T04:12:27;16.70;99.90
52044;DHT22;38053;53.100;6.078;2023-07-29T04:14:54;16.70;99.90
52044;DHT22;38053;53.100;6.078;2023-07-29T04:17:20;16.60;99.90
52044;DHT22;38053;53.100;6.078;2023-07-29T04:19:45;16.60;99.90
52044;DHT22;38053;53.100;6.078;2023-07-29T04:22:11;16.70;99.90
52044;DHT22;38053;53.100;6.078;2023-07-29T04:24:37;16.60;99.90
52044;DHT22;38053;53.100;6.078;2023-07-29T04:27:04;16.70;99.90
52044;DHT22;38053;53.100;6.078;2023-07-29T04:29:29;16.60;99.90
52044;DHT22;38053;53.100;6.078;2023-07-29T04:31:55;16.70;99.90
52044;DHT22;38053;53.100;6.078;2023-07-29T04:34:21;16.70;99.90
52044;DHT22;38053;53.100;6.078;2023-07-29T04:36:47;16.70;99.90
52044;DHT22;38053;53.100;6.078;2023-07-29T04:39:13;16.70;99.90
52044;DHT22;38053;53.100;6.078;2023-07-29T04:41:39;16.60;99.90
52044;DHT22;38053;53.100;6.078;2023-07-29T04:44:05;16.70;99.90
52044;DHT22;38053;53.100;6.078;2023-07-29T04:46:30;16.70;99.90
52044;DHT22;38053;53.100;6.078;2023-07-29T04:48:56;16.70;99.90
52044;DHT22;38053;53.100;6.078;2023-07-29T04:51:23;16.70;99.90
52044;DHT22;38053;53.100;6.078;2023-07-29T04:53:48;16.70;99.90
52044;DHT22;38053;53.100;6.078;2023-07-29T04:56:14;16.80;99.90
52044;DHT22;38053;53.100;6.078;2023-07-29T04:58:40;16.80;99.90
52044;DHT22;38053;53.100;6.078;2023-07-29T05:01:06;16.80;99.90
52044;DHT22;38053;53.100;6.078;2023-07-29T05:03:32;16.80;99.90
52044;DHT22;38053;53.100;6.078;2023-07-29T05:05:58;16.80;99.90
52044;DHT22;38053;53.100;6.078;2023-07-29T05:08:26;16.90;99.90
52044;DHT22;38053;53.100;6.078;2023-07-29T05:10:52;16.90;99.90
52044;DHT22;38053;53.100;6.078;2023-07-29T05:13:18;16.90;99.90
52044;DHT22;38053;53.100;6.078;2023-07-29T05:15:44;16.90;99.90
52044;DHT22;38053;53.100;6.078;2023-07-29T05:18:10;16.90;99.90
52044;DHT22;38053;53.100;6.078;2023-07-29T05:20:36;17.00;99.90
52044;DHT22;38053;53.100;6.078;2023-07-29T05:23:02;17.00;99.90
52044;DHT22;38053;53.100;6.078;2023-07-29T05:25:28;17.00;99.90
52044;DHT22;38053;53.100;6.078;2023-07-29T05:27:54;17.10;99.90
52044;DHT22;38053;53.100;6.078;2023-07-29T05:30:20;17.10;99.90
52044;DHT22;38053;53.100;6.078;2023-07-29T05:32:46;17.10;99.90
52044;DHT22;38053;53.100;6.078;2023-07-29T05:35:13;17.10;99.90
52044;DHT22;38053;53.100;6.078;2023-07-29T05:37:40;17.20;99.90
52044;DHT22;38053;53.100;6.078;2023-07-29T05:40:07;17.20;99.90
52044;DHT22;38053;53.100;6.078;2023-07-29T05:42:34;17.20;99.90
52044;DHT22;38053;53.100;6.078;2023-07-29T05:45:01;17.20;99.90
52044;DHT22;38053;53.100;6.078;2023-07-29T05:47:27;17.20;99.90
52044;DHT22;38053;53.100;6.078;2023-07-29T05:49:52;17.20;99.90
52044;DHT22;38053;53.100;6.078;2023-07-29T05:52:18;17.20;99.90
52044;DHT22;38053;53.100;6.078;2023-07-29T05:54:44;17.20;99.90
52044;DHT22;38053;53.100;6.078;2023-07-29T05:57:11;17.30;99.90
52044;DHT22;38053;53.100;6.078;2023-07-29T05:59:37;17.30;99.90
52044;DHT22;38053;53.100;6.078;2023-07-29T06:02:03;17.40;99.90
52044;DHT22;38053;53.100;6.078;2023-07-29T06:04:29;17.30;99.90
52044;DHT22;38053;53.100;6.078;2023-07-29T06:06:55;17.40;99.90
52044;DHT22;38053;53.100;6.078;2023-07-29T06:09:22;17.40;99.90
52044;DHT22;38053;53.100;6.078;2023-07-29T06:11:47;17.50;99.90
52044;DHT22;38053;53.100;6.078;2023-07-29T06:14:13;17.50;99.90
52044;DHT22;38053;53.100;6.078;2023-07-29T06:16:39;17.60;99.90
52044;DHT22;38053;53.100;6.078;2023-07-29T06:19:05;17.70;99.90
52044;DHT22;38053;53.100;6.078;2023-07-29T06:21:31;17.80;99.90
52044;DHT22;38053;53.100;6.078;2023-07-29T06:23:56;17.90;99.90
52044;DHT22;38053;53.100;6.078;2023-07-29T06:26:22;18.00;99.90
52044;DHT22;38053;53.100;6.078;2023-07-29T06:28:48;18.10;99.90
52044;DHT22;38053;53.100;6.078;2023-07-29T06:31:13;18.20;99.90
52044;DHT22;38053;53.100;6.078;2023-07-29T06:33:40;18.30;99.90
52044;DHT22;38053;53.100;6.078;2023-07-29T06:36:05;18.50;99.90
52044;DHT22;38053;53.100;6.078;2023-07-29T06:38:31;18.60;99.90
52044;DHT22;38053;53.100;6.078;2023-07-29T06:40:57;18.70;99.90
52044;DHT22;38053;53.100;6.078;2023-07-29T06:43:23;18.80;99.90
52044;DHT22;38053;53.100;6.078;2023-07-29T06:45:48;18.90;99.90
52044;DHT22;38053;53.100;6.078;2023-07-29T06:48:14;18.90;99.90
52044;DHT22;38053;53.100;6.078;2023-07-29T06:50:40;19.00;99.90
52044;DHT22;38053;53.100;6.078;2023-07-29T06:53:06;19.00;99.90
52044;DHT22;38053;53.100;6.078;2023-07-29T06:55:32;19.10;99.90
52044;DHT22;38053;53.100;6.078;2023-07-29T06:57:57;19.10;99.90
52044;DHT22;38053;53.100;6.078;2023-07-29T07:00:23;19.10;99.90
52044;DHT22;38053;53.100;6.078;2023-07-29T07:02:49;19.10;99.90
52044;DHT22;38053;53.100;6.078;2023-07-29T07:05:15;19.10;99.90
52044;DHT22;38053;53.100;6.078;2023-07-29T07:07:41;19.00;99.90
52044;DHT22;38053;53.100;6.078;2023-07-29T07:10:07;19.10;99.90
52044;DHT22;38053;53.100;6.078;2023-07-29T07:12:36;19.00;99.90
52044;DHT22;38053;53.100;6.078;2023-07-29T07:15:02;19.00;99.90
52044;DHT22;38053;53.100;6.078;2023-07-29T07:17:28;19.10;99.90
52044;DHT22;38053;53.100;6.078;2023-07-29T07:19:54;19.20;99.90
52044;DHT22;38053;53.100;6.078;2023-07-29T07:22:20;19.20;99.90
52044;DHT22;38053;53.100;6.078;2023-07-29T07:24:45;19.30;99.90
52044;DHT22;38053;53.100;6.078;2023-07-29T07:27:11;19.40;99.90
52044;DHT22;38053;53.100;6.078;2023-07-29T07:29:37;19.50;99.90
52044;DHT22;38053;53.100;6.078;2023-07-29T07:32:03;19.60;99.90
52044;DHT22;38053;53.100;6.078;2023-07-29T07:34:28;19.60;99.90
52044;DHT22;38053;53.100;6.078;2023-07-29T07:36:54;19.70;99.90
52044;DHT22;38053;53.100;6.078;2023-07-29T07:39:20;19.80;99.90
52044;DHT22;38053;53.100;6.078;2023-07-29T07:41:45;19.80;99.90
52044;DHT22;38053;53.100;6.078;2023-07-29T07:44:12;19.80;99.90
52044;DHT22;38053;53.100;6.078;2023-07-29T07:46:41;19.70;99.90
52044;DHT22;38053;53.100;6.078;2023-07-29T07:49:07;19.60;99.90
52044;DHT22;38053;53.100;6.078;2023-07-29T07:51:36;19.60;99.90
52044;DHT22;38053;53.100;6.078;2023-07-29T07:54:02;19.60;99.90
52044;DHT22;38053;53.100;6.078;2023-07-29T07:56:27;19.70;99.90
52044;DHT22;38053;53.100;6.078;2023-07-29T07:58:53;19.70;99.90
52044;DHT22;38053;53.100;6.078;2023-07-29T08:01:19;19.90;99.90
52044;DHT22;38053;53.100;6.078;2023-07-29T08:03:45;20.00;99.90
52044;DHT22;38053;53.100;6.078;2023-07-29T08:06:11;20.10;99.90
52044;DHT22;38053;53.100;6.078;2023-07-29T08:08:36;20.20;99.90
52044;DHT22;38053;53.100;6.078;2023-07-29T08:11:02;20.30;99.90
52044;DHT22;38053;53.100;6.078;2023-07-29T08:13:28;20.40;99.90
52044;DHT22;38053;53.100;6.078;2023-07-29T08:15:53;20.40;99.90
52044;DHT22;38053;53.100;6.078;2023-07-29T08:18:19;20.50;99.90
52044;DHT22;38053;53.100;6.078;2023-07-29T08:20:57;20.40;99.90
52044;DHT22;38053;53.100;6.078;2023-07-29T08:23:35;20.40;99.90
52044;DHT22;38053;53.100;6.078;2023-07-29T08:26:03;20.30;99.90
52044;DHT22;38053;53.100;6.078;2023-07-29T08:28:35;20.40;99.90
52044;DHT22;38053;53.100;6.078;2023-07-29T08:31:05;20.40;99.90
52044;DHT22;38053;53.100;6.078;2023-07-29T08:33:32;20.40;99.90
52044;DHT22;38053;53.100;6.078;2023-07-29T08:35:59;20.40;99.90
52044;DHT22;38053;53.100;6.078;2023-07-29T08:38:25;20.40;99.90
52044;DHT22;38053;53.100;6.078;2023-07-29T08:40:58;20.40;99.90
52044;DHT22;38053;53.100;6.078;2023-07-29T08:43:31;20.30;99.90
52044;DHT22;38053;53.100;6.078;2023-07-29T08:45:59;20.40;99.90
52044;DHT22;38053;53.100;6.078;2023-07-29T08:48:32;20.40;99.90
52044;DHT22;38053;53.100;6.078;2023-07-29T08:51:01;20.50;99.90
52044;DHT22;38053;53.100;6.078;2023-07-29T08:53:37;20.70;99.90
52044;DHT22;38053;53.100;6.078;2023-07-29T08:56:04;20.90;99.90
52044;DHT22;38053;53.100;6.078;2023-07-29T08:58:31;21.10;99.90
52044;DHT22;38053;53.100;6.078;2023-07-29T09:00:57;21.10;99.90
52044;DHT22;38053;53.100;6.078;2023-07-29T09:03:23;21.20;99.90
52044;DHT22;38053;53.100;6.078;2023-07-29T09:05:50;21.20;99.90
52044;DHT22;38053;53.100;6.078;2023-07-29T09:08:16;21.30;99.90
52044;DHT22;38053;53.100;6.078;2023-07-29T09:10:42;21.30;99.90
52044;DHT22;38053;53.100;6.078;2023-07-29T09:13:11;21.30;99.90
52044;DHT22;38053;53.100;6.078;2023-07-29T09:15:45;21.20;99.90
52044;DHT22;38053;53.100;6.078;2023-07-29T09:18:16;21.10;99.90
52044;DHT22;38053;53.100;6.078;2023-07-29T09:20:46;21.10;99.90
52044;DHT22;38053;53.100;6.078;2023-07-29T09:23:13;21.20;99.90
52044;DHT22;38053;53.100;6.078;2023-07-29T09:25:39;21.10;99.90
52044;DHT22;38053;53.100;6.078;2023-07-29T09:28:11;21.20;99.90
52044;DHT22;38053;53.100;6.078;2023-07-29T09:30:41;21.30;99.90
52044;DHT22;38053;53.100;6.078;2023-07-29T09:33:08;21.30;99.90
52044;DHT22;38053;53.100;6.078;2023-07-29T09:35:35;21.40;99.90
52044;DHT22;38053;53.100;6.078;2023-07-29T09:38:02;21.40;99.90
52044;DHT22;38053;53.100;6.078;2023-07-29T09:40:37;21.50;99.90
52044;DHT22;38053;53.100;6.078;2023-07-29T09:43:04;21.60;99.90
52044;DHT22;38053;53.100;6.078;2023-07-29T09:45:33;21.70;99.90
52044;DHT22;38053;53.100;6.078;2023-07-29T09:47:59;21.60;99.90
52044;DHT22;38053;53.100;6.078;2023-07-29T09:50:27;21.50;99.90
52044;DHT22;38053;53.100;6.078;2023-07-29T09:52:54;21.60;99.90
52044;DHT22;38053;53.100;6.078;2023-07-29T09:55:21;21.70;99.90
52044;DHT22;38053;53.100;6.078;2023-07-29T09:57:56;21.90;99.90
52044;DHT22;38053;53.100;6.078;2023-07-29T10:00:25;22.10;99.90
52044;DHT22;38053;53.100;6.078;2023-07-29T10:02:52;22.20;99.90
52044;DHT22;38053;53.100;6.078;2023-07-29T10:05:18;22.20;99.90
52044;DHT22;38053;53.100;6.078;2023-07-29T10:07:45;22.20;99.90
52044;DHT22;38053;53.100;6.078;2023-07-29T10:10:12;22.10;99.90
52044;DHT22;38053;53.100;6.078;2023-07-29T10:12:39;22.10;99.90
52044;DHT22;38053;53.100;6.078;2023-07-29T10:15:08;22.20;99.90
52044;DHT22;38053;53.100;6.078;2023-07-29T10:17:36;22.30;99.90
52044;DHT22;38053;53.100;6.078;2023-07-29T10:20:04;22.10;99.90
52044;DHT22;38053;53.100;6.078;2023-07-29T10:22:35;21.80;99.90
52044;DHT22;38053;53.100;6.078;2023-07-29T10:25:08;21.60;99.90
52044;DHT22;38053;53.100;6.078;2023-07-29T10:28:07;21.30;99.90
52044;DHT22;38053;53.100;6.078;2023-07-29T10:30:32;21.30;99.90
52044;DHT22;38053;53.100;6.078;2023-07-29T10:33:01;21.10;99.90
52044;DHT22;38053;53.100;6.078;2023-07-29T10:35:28;20.80;99.90
52044;DHT22;38053;53.100;6.078;2023-07-29T10:37:55;20.50;99.90
52044;DHT22;38053;53.100;6.078;2023-07-29T10:40:21;20.00;99.90
52044;DHT22;38053;53.100;6.078;2023-07-29T10:43:09;19.50;99.90
52044;DHT22;38053;53.100;6.078;2023-07-29T10:45:40;19.10;99.90
52044;DHT22;38053;53.100;6.078;2023-07-29T10:50:34;18.90;99.90
52044;DHT22;38053;53.100;6.078;2023-07-29T10:52:59;19.10;99.90
52044;DHT22;38053;53.100;6.078;2023-07-29T10:55:27;19.50;99.90
52044;DHT22;38053;53.100;6.078;2023-07-29T10:58:05;19.70;99.90
52044;DHT22;38053;53.100;6.078;2023-07-29T11:00:32;19.80;99.90
52044;DHT22;38053;53.100;6.078;2023-07-29T11:03:03;19.80;99.90
52044;DHT22;38053;53.100;6.078;2023-07-29T11:05:52;19.80;99.90
52044;DHT22;38053;53.100;6.078;2023-07-29T11:08:19;19.90;99.90
52044;DHT22;38053;53.100;6.078;2023-07-29T11:11:07;20.00;99.90
52044;DHT22;38053;53.100;6.078;2023-07-29T11:13:37;20.20;99.90
52044;DHT22;38053;53.100;6.078;2023-07-29T11:16:03;20.10;99.90
52044;DHT22;38053;53.100;6.078;2023-07-29T11:18:31;20.00;99.90
52044;DHT22;38053;53.100;6.078;2023-07-29T11:20:58;20.00;99.90
52044;DHT22;38053;53.100;6.078;2023-07-29T11:23:29;20.00;99.90
52044;DHT22;38053;53.100;6.078;2023-07-29T11:25:55;20.00;99.90
52044;DHT22;38053;53.100;6.078;2023-07-29T11:28:22;20.00;99.90
52044;DHT22;38053;53.100;6.078;2023-07-29T11:30:50;20.00;99.90
52044;DHT22;38053;53.100;6.078;2023-07-29T11:33:23;20.00;99.90
52044;DHT22;38053;53.100;6.078;2023-07-29T11:35:50;19.90;99.90
52044;DHT22;38053;53.100;6.078;2023-07-29T11:38:20;19.90;99.90
52044;DHT22;38053;53.100;6.078;2023-07-29T11:41:00;19.80;99.90
52044;DHT22;38053;53.100;6.078;2023-07-29T11:43:26;19.80;99.90
52044;DHT22;38053;53.100;6.078;2023-07-29T11:45:52;19.70;99.90
52044;DHT22;38053;53.100;6.078;2023-07-29T11:48:32;19.80;99.90
52044;DHT22;38053;53.100;6.078;2023-07-29T11:50:58;19.80;99.90
52044;DHT22;38053;53.100;6.078;2023-07-29T11:53:27;19.90;99.90
52044;DHT22;38053;53.100;6.078;2023-07-29T11:55:54;19.90;99.90
52044;DHT22;38053;53.100;6.078;2023-07-29T11:58:20;19.90;99.90
52044;DHT22;38053;53.100;6.078;2023-07-29T12:00:46;20.00;99.90
52044;DHT22;38053;53.100;6.078;2023-07-29T12:03:12;20.10;99.90
52044;DHT22;38053;53.100;6.078;2023-07-29T12:05:39;20.40;99.90
52044;DHT22;38053;53.100;6.078;2023-07-29T12:08:08;20.80;99.90
52044;DHT22;38053;53.100;6.078;2023-07-29T12:10:35;21.00;99.90
52044;DHT22;38053;53.100;6.078;2023-07-29T12:13:02;21.20;99.90
52044;DHT22;38053;53.100;6.078;2023-07-29T12:15:29;21.20;99.90
52044;DHT22;38053;53.100;6.078;2023-07-29T12:17:56;21.20;99.90
52044;DHT22;38053;53.100;6.078;2023-07-29T12:20:22;21.20;99.90
52044;DHT22;38053;53.100;6.078;2023-07-29T12:22:53;21.20;99.90
52044;DHT22;38053;53.100;6.078;2023-07-29T12:25:19;21.10;99.90
52044;DHT22;38053;53.100;6.078;2023-07-29T12:27:45;21.10;99.90
52044;DHT22;38053;53.100;6.078;2023-07-29T12:30:11;21.00;99.90
52044;DHT22;38053;53.100;6.078;2023-07-29T12:32:47;20.90;99.90
52044;DHT22;38053;53.100;6.078;2023-07-29T12:35:13;20.80;99.90
52044;DHT22;38053;53.100;6.078;2023-07-29T12:37:39;20.80;99.90
52044;DHT22;38053;53.100;6.078;2023-07-29T12:40:27;20.90;99.90
52044;DHT22;38053;53.100;6.078;2023-07-29T12:42:53;21.10;99.90
52044;DHT22;38053;53.100;6.078;2023-07-29T12:45:19;21.30;99.90
52044;DHT22;38053;53.100;6.078;2023-07-29T12:47:47;21.30;99.90
52044;DHT22;38053;53.100;6.078;2023-07-29T12:50:13;21.30;99.90
52044;DHT22;38053;53.100;6.078;2023-07-29T12:52:42;21.50;99.90
52044;DHT22;38053;53.100;6.078;2023-07-29T12:55:08;21.70;99.90
52044;DHT22;38053;53.100;6.078;2023-07-29T12:57:35;21.60;99.90
52044;DHT22;38053;53.100;6.078;2023-07-29T13:00:02;21.50;99.90
52044;DHT22;38053;53.100;6.078;2023-07-29T13:02:29;21.50;99.90
52044;DHT22;38053;53.100;6.078;2023-07-29T13:04:54;21.70;99.90
52044;DHT22;38053;53.100;6.078;2023-07-29T13:07:21;21.70;99.90
52044;DHT22;38053;53.100;6.078;2023-07-29T13:09:55;21.60;99.90
52044;DHT22;38053;53.100;6.078;2023-07-29T13:12:21;21.50;99.90
52044;DHT22;38053;53.100;6.078;2023-07-29T13:14:47;21.40;99.90
52044;DHT22;38053;53.100;6.078;2023-07-29T13:17:12;21.30;99.90
52044;DHT22;38053;53.100;6.078;2023-07-29T13:19:38;21.30;99.90
52044;DHT22;38053;53.100;6.078;2023-07-29T13:22:04;21.30;99.90
52044;DHT22;38053;53.100;6.078;2023-07-29T13:24:29;21.40;99.90
52044;DHT22;38053;53.100;6.078;2023-07-29T13:26:55;21.50;99.90
52044;DHT22;38053;53.100;6.078;2023-07-29T13:29:21;21.80;99.90
52044;DHT22;38053;53.100;6.078;2023-07-29T13:31:46;22.40;99.90
52044;DHT22;38053;53.100;6.078;2023-07-29T13:34:13;23.10;99.90
52044;DHT22;38053;53.100;6.078;2023-07-29T13:36:39;23.50;99.90
52044;DHT22;38053;53.100;6.078;2023-07-29T13:39:05;23.80;99.90
52044;DHT22;38053;53.100;6.078;2023-07-29T13:41:31;24.20;99.90
52044;DHT22;38053;53.100;6.078;2023-07-29T13:43:57;24.60;99.90
52044;DHT22;38053;53.100;6.078;2023-07-29T13:46:22;24.90;99.90
52044;DHT22;38053;53.100;6.078;2023-07-29T13:48:49;25.10;99.90
52044;DHT22;38053;53.100;6.078;2023-07-29T13:51:14;25.10;99.90
52044;DHT22;38053;53.100;6.078;2023-07-29T13:53:40;24.90;99.90
52044;DHT22;38053;53.100;6.078;2023-07-29T13:56:06;24.80;99.90
52044;DHT22;38053;53.100;6.078;2023-07-29T13:58:31;24.70;99.90
52044;DHT22;38053;53.100;6.078;2023-07-29T14:01:04;24.40;99.90
52044;DHT22;38053;53.100;6.078;2023-07-29T14:03:30;24.50;99.90
52044;DHT22;38053;53.100;6.078;2023-07-29T14:05:55;24.70;99.90
52044;DHT22;38053;53.100;6.078;2023-07-29T14:08:21;24.80;99.90
52044;DHT22;38053;53.100;6.078;2023-07-29T14:10:49;25.00;99.90
52044;DHT22;38053;53.100;6.078;2023-07-29T14:13:15;25.10;99.90
52044;DHT22;38053;53.100;6.078;2023-07-29T14:15:40;25.00;99.90
52044;DHT22;38053;53.100;6.078;2023-07-29T14:18:06;24.70;99.90
52044;DHT22;38053;53.100;6.078;2023-07-29T14:20:32;24.60;99.90
52044;DHT22;38053;53.100;6.078;2023-07-29T14:22:58;24.60;99.90
52044;DHT22;38053;53.100;6.078;2023-07-29T14:25:26;24.70;99.90
52044;DHT22;38053;53.100;6.078;2023-07-29T14:27:52;25.00;99.90
52044;DHT22;38053;53.100;6.078;2023-07-29T14:30:19;25.60;99.90
52044;DHT22;38053;53.100;6.078;2023-07-29T14:32:45;26.00;99.90
52044;DHT22;38053;53.100;6.078;2023-07-29T14:35:10;26.20;99.90
52044;DHT22;38053;53.100;6.078;2023-07-29T14:37:36;26.00;99.90
52044;DHT22;38053;53.100;6.078;2023-07-29T14:40:03;25.60;99.90
52044;DHT22;38053;53.100;6.078;2023-07-29T14:42:29;25.10;99.90
52044;DHT22;38053;53.100;6.078;2023-07-29T14:44:55;24.90;99.90
52044;DHT22;38053;53.100;6.078;2023-07-29T14:47:21;24.60;99.90
52044;DHT22;38053;53.100;6.078;2023-07-29T14:49:48;24.40;99.90
52044;DHT22;38053;53.100;6.078;2023-07-29T14:52:13;24.40;99.90
52044;DHT22;38053;53.100;6.078;2023-07-29T14:54:40;24.50;99.90
52044;DHT22;38053;53.100;6.078;2023-07-29T14:57:06;24.70;99.90
52044;DHT22;38053;53.100;6.078;2023-07-29T14:59:33;24.70;99.90
52044;DHT22;38053;53.100;6.078;2023-07-29T15:01:58;24.60;99.90
52044;DHT22;38053;53.100;6.078;2023-07-29T15:04:24;24.30;99.90
52044;DHT22;38053;53.100;6.078;2023-07-29T15:06:50;24.20;99.90
52044;DHT22;38053;53.100;6.078;2023-07-29T15:09:17;24.00;99.90
52044;DHT22;38053;53.100;6.078;2023-07-29T15:11:43;23.90;99.90
52044;DHT22;38053;53.100;6.078;2023-07-29T15:14:10;23.90;99.90
52044;DHT22;38053;53.100;6.078;2023-07-29T15:16:36;23.90;99.90
52044;DHT22;38053;53.100;6.078;2023-07-29T15:19:03;24.00;99.90
52044;DHT22;38053;53.100;6.078;2023-07-29T15:21:32;24.00;99.90
52044;DHT22;38053;53.100;6.078;2023-07-29T15:24:01;24.00;99.90
52044;DHT22;38053;53.100;6.078;2023-07-29T15:26:28;24.00;99.90
52044;DHT22;38053;53.100;6.078;2023-07-29T15:28:57;24.10;99.90
52044;DHT22;38053;53.100;6.078;2023-07-29T15:31:23;24.30;99.90
52044;DHT22;38053;53.100;6.078;2023-07-29T15:33:48;24.40;99.90
52044;DHT22;38053;53.100;6.078;2023-07-29T15:36:14;24.50;99.90